Time;durP1;ratioP1;P1;durP2;ratioP2;P2;SDS_P1;SDS_P2;PMS_P1;PMS_P2;Temp;Humidity;BMP_temperature;BMP_pressure;BME280_temperature;BME280_humidity;BME280_pressure;Samples;Min_cycle;Max_cycle;Signal;HPM_P1;HPM_P2
2021/05/11 00:00:37;;;;;;;5.25;2.60;;;15.70;88.10;;;;;;6215036;23;20402;-64
2021/05/11 00:03:03;;;;;;;5.05;2.08;;;15.60;88.50;;;;;;6213963;23;20075;-63
2021/05/11 00:05:30;;;;;;;7.57;2.30;;;15.60;88.60;;;;;;6214806;23;20422;-66
2021/05/11 00:07:57;;;;;;;6.57;2.20;;;15.50;88.40;;;;;;6214939;23;20024;-65
2021/05/11 00:10:24;;;;;;;6.05;2.35;;;15.50;87.50;;;;;;6214508;23;20027;-65
2021/05/11 00:12:49;;;;;;;6.63;2.03;;;15.50;87.70;;;;;;6214510;23;20000;-67
2021/05/11 00:15:15;;;;;;;5.97;2.58;;;15.50;87.60;;;;;;6214378;23;20135;-65
2021/05/11 00:17:42;;;;;;;5.00;2.20;;;15.50;87.20;;;;;;6213389;23;20019;-65
2021/05/11 00:20:08;;;;;;;5.43;2.75;;;15.40;88.00;;;;;;6214906;23;20007;-65
2021/05/11 00:22:34;;;;;;;7.53;3.13;;;15.40;87.80;;;;;;6214420;23;20071;-64
2021/05/11 00:24:59;;;;;;;5.07;2.25;;;15.40;87.70;;;;;;6213628;23;20035;-64
2021/05/11 00:27:25;;;;;;;4.05;2.15;;;15.30;88.30;;;;;;6214477;23;20005;-68
2021/05/11 00:29:51;;;;;;;6.00;2.33;;;15.30;88.80;;;;;;6214743;23;20016;-66
2021/05/11 00:32:16;;;;;;;6.82;2.20;;;15.30;89.60;;;;;;6213402;23;20428;-68
2021/05/11 00:34:42;;;;;;;7.15;2.70;;;15.20;89.80;;;;;;6214297;23;20008;-67
2021/05/11 00:37:07;;;;;;;6.10;2.38;;;15.20;90.10;;;;;;6212822;23;19997;-65
2021/05/11 00:39:33;;;;;;;6.97;2.50;;;15.10;90.30;;;;;;6213229;23;20013;-67
2021/05/11 00:41:58;;;;;;;6.60;2.78;;;15.10;90.10;;;;;;6214183;23;20036;-65
2021/05/11 00:44:26;;;;;;;5.95;2.35;;;15.10;90.10;;;;;;6214960;23;20064;-63
2021/05/11 00:47:04;;;;;;;6.20;2.25;;;15.10;90.00;;;;;;6211766;23;20425;-63
2021/05/11 00:49:32;;;;;;;5.25;2.50;;;15.00;90.00;;;;;;6214745;23;20004;-64
2021/05/11 00:51:59;;;;;;;6.30;2.70;;;15.00;89.60;;;;;;6214688;23;20009;-64
2021/05/11 00:54:25;;;;;;;6.80;2.60;;;15.00;89.30;;;;;;6213942;23;20011;-65
2021/05/11 00:56:52;;;;;;;5.97;2.80;;;15.00;89.20;;;;;;6214160;23;20024;-64
2021/05/11 00:59:25;;;;;;;8.20;3.03;;;15.00;89.70;;;;;;6213498;23;20008;-67
2021/05/11 01:01:51;;;;;;;5.70;2.70;;;14.90;89.60;;;;;;6212669;23;20004;-66
2021/05/11 01:04:16;;;;;;;6.22;3.20;;;14.90;89.60;;;;;;6213997;23;20421;-66
2021/05/11 01:06:42;;;;;;;10.02;3.45;;;14.90;89.90;;;;;;6213466;23;20007;-63
2021/05/11 01:09:08;;;;;;;9.05;2.80;;;14.90;90.10;;;;;;6214078;23;19997;-66
2021/05/11 01:11:35;;;;;;;12.88;4.43;;;14.90;90.00;;;;;;6214002;23;20008;-68
2021/05/11 01:14:01;;;;;;;8.13;3.70;;;14.90;90.10;;;;;;6211567;23;20028;-68
2021/05/11 01:16:28;;;;;;;9.35;3.30;;;14.80;90.30;;;;;;6214388;23;20027;-68
2021/05/11 01:18:58;;;;;;;9.50;3.30;;;14.80;90.40;;;;;;6212068;23;20035;-67
2021/05/11 01:21:42;;;;;;;11.57;3.42;;;14.80;90.30;;;;;;6187997;23;20011;-67
2021/05/11 01:24:13;;;;;;;10.98;3.63;;;14.80;90.40;;;;;;6212658;23;20100;-68
2021/05/11 01:29:37;;;;;;;9.70;4.07;;;14.80;90.40;;;;;;6216989;23;20421;-67
2021/05/11 01:48:19;;;;;;;9.40;3.97;;;14.70;91.00;;;;;;6221518;23;20012;-63
2021/05/11 01:51:36;;;;;;;11.68;3.55;;;14.60;91.00;;;;;;6211591;23;20004;-65
2021/05/11 01:56:26;;;;;;;8.50;4.00;;;14.60;91.20;;;;;;6213311;23;20016;-66
2021/05/11 02:23:32;;;;;;;11.88;4.80;;;14.50;92.20;;;;;;6122559;23;20150;-65
2021/05/11 02:25:58;;;;;;;9.43;4.60;;;14.40;92.60;;;;;;6193668;23;20422;-64
2021/05/11 02:28:25;;;;;;;7.60;4.40;;;14.40;92.40;;;;;;6214056;23;20023;-65
2021/05/11 02:30:51;;;;;;;12.68;5.00;;;14.40;92.50;;;;;;6212525;23;20005;-65
2021/05/11 02:33:17;;;;;;;9.38;4.70;;;14.40;92.50;;;;;;6213338;23;20003;-66
2021/05/11 02:35:43;;;;;;;12.95;5.25;;;14.40;92.60;;;;;;6213436;23;20032;-64
2021/05/11 02:38:09;;;;;;;9.32;4.50;;;14.40;92.70;;;;;;6212536;23;20059;-64
2021/05/11 02:40:34;;;;;;;9.88;4.63;;;14.30;92.70;;;;;;6215385;23;20491;-64
2021/05/11 02:43:04;;;;;;;7.63;4.53;;;14.30;92.80;;;;;;6215471;23;20004;-64
2021/05/11 02:45:31;;;;;;;10.52;4.82;;;14.30;92.90;;;;;;6215093;23;20009;-64
2021/05/11 02:47:56;;;;;;;6.88;5.00;;;14.30;92.90;;;;;;6215421;23;20385;-65
2021/05/11 02:50:28;;;;;;;9.13;4.75;;;14.30;93.00;;;;;;6215616;23;20003;-64
2021/05/11 02:52:53;;;;;;;9.82;5.22;;;14.30;93.10;;;;;;6214724;23;20001;-65
2021/05/11 02:55:20;;;;;;;10.77;5.95;;;14.20;93.10;;;;;;6215449;23;20001;-66
2021/05/11 02:57:46;;;;;;;15.60;5.97;;;14.20;93.20;;;;;;6213582;23;20441;-67
2021/05/11 03:00:17;;;;;;;13.43;5.88;;;14.20;93.30;;;;;;6214591;23;19997;-65
2021/05/11 03:02:43;;;;;;;10.93;6.10;;;14.20;93.40;;;;;;6215216;23;20028;-65
2021/05/11 03:05:09;;;;;;;9.02;5.70;;;14.20;93.40;;;;;;6213947;23;20004;-64
2021/05/11 03:07:35;;;;;;;11.82;5.38;;;14.20;93.40;;;;;;6213228;23;20024;-66
2021/05/11 03:10:02;;;;;;;11.25;5.85;;;14.30;93.50;;;;;;6215405;23;20012;-67
2021/05/11 03:12:28;;;;;;;9.02;5.70;;;14.30;93.50;;;;;;6215587;23;19997;-66
2021/05/11 03:14:53;;;;;;;9.48;5.70;;;14.30;93.50;;;;;;6214361;23;20005;-66
2021/05/11 03:17:19;;;;;;;9.20;5.80;;;14.20;93.50;;;;;;6214918;23;20000;-64
2021/05/11 03:19:45;;;;;;;12.60;6.25;;;14.30;93.60;;;;;;6214936;23;20073;-68
2021/05/11 03:22:10;;;;;;;9.70;5.35;;;14.30;93.60;;;;;;6214858;23;20001;-66
2021/05/11 03:24:38;;;;;;;11.45;6.90;;;14.20;93.60;;;;;;6215462;23;20059;-68
2021/05/11 03:27:04;;;;;;;9.95;5.82;;;14.20;93.60;;;;;;6214298;23;20422;-67
2021/05/11 03:29:30;;;;;;;10.93;6.10;;;14.30;93.60;;;;;;6215339;23;20020;-65
2021/05/11 03:31:56;;;;;;;10.15;5.63;;;14.20;93.70;;;;;;6213597;23;20011;-68
2021/05/11 03:34:21;;;;;;;7.30;5.53;;;14.20;93.70;;;;;;6214331;23;20047;-67
2021/05/11 03:36:47;;;;;;;10.90;6.03;;;14.20;93.80;;;;;;6214636;23;20369;-68
2021/05/11 03:39:13;;;;;;;12.10;6.10;;;14.20;93.80;;;;;;6213925;23;20016;-67
2021/05/11 03:41:48;;;;;;;9.38;5.97;;;14.20;93.80;;;;;;6212206;23;20005;-68
2021/05/11 03:44:16;;;;;;;11.30;6.47;;;14.20;93.80;;;;;;6214811;23;20481;-68
2021/05/11 03:46:42;;;;;;;12.63;6.30;;;14.20;93.80;;;;;;6215447;23;19997;-64
2021/05/11 03:49:08;;;;;;;8.27;5.60;;;14.20;93.80;;;;;;6213501;23;20562;-65
2021/05/11 03:51:35;;;;;;;8.48;6.20;;;14.20;93.90;;;;;;6214829;23;20032;-63
2021/05/11 03:54:00;;;;;;;7.32;5.60;;;14.20;93.90;;;;;;6213276;23;20115;-65
2021/05/11 03:56:29;;;;;;;9.65;6.30;;;14.10;93.90;;;;;;6213901;23;20039;-65
2021/05/11 03:58:55;;;;;;;12.15;5.93;;;14.20;94.00;;;;;;6214706;23;20100;-64
2021/05/11 04:01:20;;;;;;;8.82;6.35;;;14.20;94.00;;;;;;6215269;23;20036;-65
2021/05/11 04:03:46;;;;;;;8.13;5.70;;;14.20;94.00;;;;;;6213637;23;20001;-66
2021/05/11 04:06:12;;;;;;;11.90;6.25;;;14.20;94.00;;;;;;6214690;23;20007;-66
2021/05/11 04:11:36;;;;;;;8.77;6.03;;;14.20;94.00;;;;;;6214123;23;20011;-69
2021/05/11 04:16:38;;;;;;;8.65;6.13;;;14.20;94.00;;;;;;6224153;23;20004;-69
2021/05/11 04:19:04;;;;;;;8.38;6.00;;;14.20;94.00;;;;;;6213782;23;20009;-64
2021/05/11 04:21:31;;;;;;;10.13;6.68;;;14.20;94.00;;;;;;6214302;23;20055;-65
2021/05/11 04:23:57;;;;;;;10.05;6.15;;;14.20;94.00;;;;;;6213482;23;20008;-68
2021/05/11 04:26:23;;;;;;;9.48;6.68;;;14.20;94.00;;;;;;6214558;23;20381;-66
2021/05/11 04:28:50;;;;;;;8.10;6.18;;;14.20;94.00;;;;;;6214533;23;20008;-65
2021/05/11 04:31:17;;;;;;;9.15;6.20;;;14.20;94.00;;;;;;6214108;23;20055;-64
2021/05/11 04:33:43;;;;;;;12.73;6.28;;;14.20;94.10;;;;;;6214481;23;20008;-65
2021/05/11 04:36:11;;;;;;;8.90;6.53;;;14.20;94.10;;;;;;6214590;23;20051;-64
2021/05/11 04:38:38;;;;;;;10.48;6.15;;;14.20;94.10;;;;;;6213284;23;20099;-68
2021/05/11 04:41:04;;;;;;;9.77;6.30;;;14.20;94.10;;;;;;6214199;23;19997;-65
2021/05/11 04:43:33;;;;;;;12.88;6.47;;;14.20;94.10;;;;;;6214606;23;20080;-65
2021/05/11 04:46:07;;;;;;;10.15;6.13;;;14.30;94.40;;;;;;6211961;23;20429;-65
2021/05/11 04:48:33;;;;;;;12.18;5.97;;;14.30;94.10;;;;;;6214236;23;19996;-68
2021/05/11 04:50:58;;;;;;;11.77;6.80;;;14.30;94.10;;;;;;6214479;23;20055;-64
2021/05/11 04:53:24;;;;;;;10.75;6.85;;;14.30;94.00;;;;;;6213927;23;20471;-68
2021/05/11 04:55:50;;;;;;;10.50;6.80;;;14.40;94.00;;;;;;6214231;23;20044;-65
2021/05/11 04:58:15;;;;;;;11.43;6.30;;;14.40;94.00;;;;;;6212199;23;20067;-64
2021/05/11 05:00:41;;;;;;;10.00;6.13;;;14.40;94.00;;;;;;6212793;23;20004;-65
2021/05/11 05:03:08;;;;;;;12.88;7.40;;;14.50;93.90;;;;;;6214407;23;20083;-64
2021/05/11 05:05:33;;;;;;;9.25;5.97;;;14.50;93.90;;;;;;6213469;23;20024;-64
2021/05/11 05:07:59;;;;;;;10.18;6.13;;;14.50;93.80;;;;;;6212314;23;20007;-65
2021/05/11 05:10:24;;;;;;;11.10;6.13;;;14.50;93.80;;;;;;6214439;23;20432;-64
2021/05/11 05:12:50;;;;;;;14.23;5.95;;;14.60;93.80;;;;;;6212922;23;20008;-64
2021/05/11 05:15:16;;;;;;;10.70;5.80;;;14.60;93.70;;;;;;6213788;23;20007;-64
2021/05/11 05:17:42;;;;;;;11.50;5.70;;;14.70;93.70;;;;;;6213942;23;20027;-64
2021/05/11 05:20:08;;;;;;;12.35;6.00;;;14.70;93.60;;;;;;6213414;23;20009;-65
2021/05/11 05:22:34;;;;;;;9.80;5.95;;;14.80;93.60;;;;;;6213841;23;20003;-66
2021/05/11 05:25:08;;;;;;;10.13;5.72;;;14.80;93.50;;;;;;6213887;23;20009;-64
2021/05/11 05:27:39;;;;;;;8.93;5.88;;;14.90;93.50;;;;;;6213078;23;20302;-67
2021/05/11 05:30:06;;;;;;;11.40;5.85;;;14.90;93.50;;;;;;6213847;23;20320;-65
2021/05/11 05:32:31;;;;;;;11.02;5.88;;;14.90;93.40;;;;;;6213889;23;20435;-64
2021/05/11 05:34:57;;;;;;;9.00;5.97;;;14.90;93.30;;;;;;6213478;23;20413;-67
2021/05/11 05:37:22;;;;;;;10.82;5.93;;;15.00;93.40;;;;;;6209518;23;20430;-65
2021/05/11 05:39:52;;;;;;;9.13;5.78;;;15.00;93.30;;;;;;6212524;23;20019;-68
2021/05/11 05:42:17;;;;;;;7.85;5.88;;;15.10;93.30;;;;;;6211591;23;20001;-68
2021/05/11 05:44:43;;;;;;;9.50;5.43;;;15.10;93.20;;;;;;6213480;23;20360;-70
2021/05/11 05:47:08;;;;;;;9.75;6.03;;;15.20;93.20;;;;;;6212979;23;20362;-64
2021/05/11 05:50:01;;;;;;;9.77;6.13;;;15.20;93.10;;;;;;6213033;23;20478;-63
2021/05/11 05:52:33;;;;;;;12.27;6.03;;;15.30;93.00;;;;;;6213031;23;20005;-63
2021/05/11 05:54:59;;;;;;;10.85;5.68;;;15.40;93.00;;;;;;6212992;23;20084;-65
2021/05/11 05:57:24;;;;;;;11.63;5.57;;;15.40;92.80;;;;;;6213980;23;20032;-66
2021/05/11 05:59:50;;;;;;;10.88;5.60;;;15.40;92.80;;;;;;6213757;23;20503;-66
2021/05/11 06:02:17;;;;;;;10.02;5.57;;;15.50;92.70;;;;;;6210884;23;20028;-67
2021/05/11 06:04:43;;;;;;;12.57;5.85;;;15.50;92.70;;;;;;6213424;23;20005;-67
2021/05/11 06:07:09;;;;;;;8.60;5.28;;;15.60;92.70;;;;;;6213976;23;20008;-69
2021/05/11 06:09:35;;;;;;;7.65;5.95;;;15.70;92.70;;;;;;6212314;23;20016;-68
2021/05/11 06:12:07;;;;;;;9.88;5.53;;;15.80;92.70;;;;;;6213291;23;20031;-65
2021/05/11 06:17:21;;;;;;;7.93;5.68;;;16.00;92.50;;;;;;6212829;23;20092;-68
2021/05/11 06:19:51;;;;;;;9.63;6.18;;;16.10;92.40;;;;;;6211163;23;20036;-67
2021/05/11 06:22:17;;;;;;;8.65;6.30;;;16.20;92.20;;;;;;6212066;23;20016;-69
2021/05/11 06:24:43;;;;;;;11.05;6.30;;;16.20;92.00;;;;;;6210999;23;20123;-69
2021/05/11 06:27:10;;;;;;;10.88;5.63;;;16.30;91.70;;;;;;6213177;23;20071;-67
2021/05/11 06:29:38;;;;;;;9.35;6.15;;;16.40;91.70;;;;;;6213561;23;20064;-67
2021/05/11 06:32:05;;;;;;;11.57;5.68;;;16.50;91.60;;;;;;6211365;23;20028;-66
2021/05/11 06:34:32;;;;;;;9.02;6.55;;;16.60;91.50;;;;;;6213768;23;20001;-66
2021/05/11 06:36:58;;;;;;;9.68;5.13;;;16.60;91.40;;;;;;6211265;23;20030;-66
2021/05/11 06:39:24;;;;;;;5.72;4.38;;;16.70;91.30;;;;;;6211348;23;20027;-66
2021/05/11 06:41:52;;;;;;;8.38;4.85;;;16.70;91.00;;;;;;6212828;23;20011;-67
2021/05/11 06:54:54;;;;;;;10.68;4.80;;;17.10;90.60;;;;;;6212844;23;20019;-65
2021/05/11 06:57:20;;;;;;;10.02;4.90;;;17.10;90.50;;;;;;6213213;23;19997;-65
2021/05/11 06:59:45;;;;;;;11.43;5.45;;;17.20;90.40;;;;;;6212175;23;20333;-65
2021/05/11 07:02:11;;;;;;;12.65;6.47;;;17.30;90.40;;;;;;6211750;23;20016;-66
2021/05/11 07:04:38;;;;;;;8.18;5.22;;;17.30;90.20;;;;;;6213029;23;20000;-66
2021/05/11 07:07:07;;;;;;;11.98;5.78;;;17.40;90.00;;;;;;6212278;23;20001;-67
2021/05/11 07:10:19;;;;;;;11.15;5.80;;;17.50;90.00;;;;;;6212890;23;20007;-67
2021/05/11 07:15:07;;;;;;;8.60;5.40;;;17.80;88.10;;;;;;6212574;23;20047;-67
2021/05/11 07:17:32;;;;;;;9.70;5.50;;;17.90;87.80;;;;;;6212536;23;20440;-65
2021/05/11 07:19:58;;;;;;;8.70;4.78;;;18.10;87.10;;;;;;6211569;23;20079;-66
2021/05/11 07:22:23;;;;;;;14.00;5.50;;;18.20;86.50;;;;;;6213516;23;20075;-66
2021/05/11 07:24:53;;;;;;;10.13;5.75;;;18.30;84.90;;;;;;6212622;23;20008;-68
2021/05/11 07:29:56;;;;;;;13.05;4.75;;;18.30;85.30;;;;;;6224912;23;20495;-70
2021/05/11 07:32:22;;;;;;;8.68;4.97;;;18.30;84.90;;;;;;6213321;23;20481;-66
2021/05/11 07:34:51;;;;;;;10.15;4.60;;;18.30;84.40;;;;;;6214407;23;20005;-66
2021/05/11 07:37:17;;;;;;;8.93;5.18;;;18.40;85.00;;;;;;6214900;23;20016;-65
2021/05/11 07:39:45;;;;;;;11.15;4.72;;;18.40;85.00;;;;;;6214002;23;20085;-66
2021/05/11 07:42:11;;;;;;;7.68;4.32;;;18.60;84.90;;;;;;6214013;23;20426;-63
2021/05/11 07:44:41;;;;;;;6.55;4.60;;;18.80;83.70;;;;;;6213293;23;20481;-64
2021/05/11 08:16:34;;;;;;;8.40;4.25;;;20.10;74.70;;;;;;6214018;23;19906;-64
2021/05/11 08:27:39;;;;;;;6.45;4.25;;;20.10;77.60;;;;;;6214612;23;20024;-64
2021/05/11 08:30:05;;;;;;;9.57;5.00;;;20.10;78.70;;;;;;6213867;23;20028;-63
2021/05/11 08:32:31;;;;;;;8.50;5.10;;;20.00;78.40;;;;;;6214255;23;20409;-67
2021/05/11 08:34:56;;;;;;;8.35;5.35;;;20.00;78.50;;;;;;6214466;23;20004;-65
2021/05/11 08:37:22;;;;;;;7.35;5.47;;;19.90;78.00;;;;;;6213907;23;20055;-65
2021/05/11 08:39:51;;;;;;;8.50;5.53;;;19.70;79.60;;;;;;6214419;23;20376;-64
2021/05/11 08:42:16;;;;;;;8.80;5.47;;;19.60;80.00;;;;;;6214192;23;20071;-66
2021/05/11 08:44:42;;;;;;;14.00;6.35;;;19.50;80.70;;;;;;6213426;23;20098;-65
2021/05/11 08:47:09;;;;;;;13.80;6.65;;;19.40;81.20;;;;;;6214498;23;20472;-64
2021/05/11 08:49:35;;;;;;;12.25;6.57;;;19.40;82.00;;;;;;6214195;23;20294;-65
2021/05/11 08:54:43;;;;;;;8.80;6.82;;;19.20;82.10;;;;;;6224578;23;20036;-66
2021/05/11 09:04:34;;;;;;;13.30;7.30;;;19.10;82.90;;;;;;6214249;23;20413;-66
2021/05/11 09:25:17;;;;;;;10.27;6.80;;;18.40;85.30;;;;;;6213732;23;20040;-64
2021/05/11 09:27:57;;;;;;;8.82;6.13;;;18.40;85.10;;;;;;6213300;23;20051;-64
2021/05/11 09:33:02;;;;;;;10.82;6.30;;;18.30;84.60;;;;;;6212880;23;20035;-64
2021/05/11 10:10:40;;;;;;;10.27;5.88;;;18.60;82.90;;;;;;6213639;23;20016;-71
2021/05/11 10:13:36;;;;;;;12.38;5.90;;;18.90;82.00;;;;;;6213292;23;20017;-72
2021/05/11 10:48:35;;;;;;;8.40;3.33;;;20.00;67.20;;;;;;6213323;23;20009;-71
2021/05/11 10:51:22;;;;;;;9.07;3.78;;;20.00;67.40;;;;;;6210229;23;20008;-67
2021/05/11 10:54:03;;;;;;;8.65;2.60;;;20.10;67.00;;;;;;6211072;23;20001;-75
2021/05/11 11:02:13;;;;;;;4.03;2.10;;;20.90;64.90;;;;;;6215061;23;20011;-71
2021/05/11 11:04:46;;;;;;;5.90;2.58;;;21.10;64.00;;;;;;6214454;23;20028;-70
2021/05/11 11:07:14;;;;;;;5.75;2.40;;;21.20;63.60;;;;;;6214880;23;20004;-72
2021/05/11 11:09:41;;;;;;;4.65;2.03;;;21.30;63.00;;;;;;6214697;23;20028;-69
2021/05/11 11:12:08;;;;;;;5.15;2.35;;;21.30;62.00;;;;;;6214032;23;20007;-70
2021/05/11 11:14:36;;;;;;;5.38;2.15;;;21.30;62.30;;;;;;6215138;23;20005;-67
2021/05/11 11:17:04;;;;;;;6.55;2.70;;;21.30;60.90;;;;;;6214177;23;20402;-70
2021/05/11 11:19:31;;;;;;;8.95;3.40;;;21.10;61.50;;;;;;6214191;23;20013;-72
2021/05/11 11:24:30;;;;;;;9.95;3.80;;;21.10;63.70;;;;;;6215316;23;20009;-68
2021/05/11 11:26:57;;;;;;;7.10;3.88;;;21.00;64.00;;;;;;6213918;23;20058;-68
2021/05/11 11:29:24;;;;;;;5.75;2.45;;;20.70;63.90;;;;;;6214667;23;20001;-69
2021/05/11 11:31:51;;;;;;;5.20;2.47;;;20.40;64.20;;;;;;6212865;23;20004;-72
2021/05/11 11:34:31;;;;;;;4.65;2.60;;;20.20;64.80;;;;;;6213687;23;19997;-72
2021/05/11 11:37:10;;;;;;;7.93;3.00;;;20.00;65.30;;;;;;6212054;23;20004;-70
2021/05/11 11:39:47;;;;;;;8.32;3.90;;;19.80;64.90;;;;;;6213304;23;20052;-69
2021/05/11 11:42:47;;;;;;;5.43;3.28;;;19.50;65.80;;;;;;6212541;23;20012;-71
2021/05/11 11:45:24;;;;;;;9.43;3.63;;;19.30;67.10;;;;;;6149192;23;20298;-70
2021/05/11 11:48:03;;;;;;;9.07;3.78;;;19.20;68.70;;;;;;6212661;23;20075;-73
2021/05/11 11:50:34;;;;;;;6.13;3.38;;;19.10;70.20;;;;;;6214137;23;19996;-71
2021/05/11 11:53:06;;;;;;;8.77;3.70;;;19.00;69.80;;;;;;6212553;23;20366;-74
2021/05/11 11:57:57;;;;;;;5.15;2.72;;;18.70;70.40;;;;;;6214466;23;20013;-69
2021/05/11 12:00:24;;;;;;;6.43;3.33;;;18.60;70.00;;;;;;6213195;23;20009;-69
2021/05/11 12:02:51;;;;;;;8.30;4.00;;;18.40;69.50;;;;;;6212853;23;20047;-70
2021/05/11 12:05:17;;;;;;;8.65;4.05;;;18.30;70.50;;;;;;6214160;23;20438;-68
2021/05/11 12:07:56;;;;;;;9.35;3.65;;;18.20;71.10;;;;;;6213298;23;19997;-70
2021/05/11 12:10:22;;;;;;;6.10;3.28;;;18.10;71.40;;;;;;6214356;23;20012;-67
2021/05/11 12:12:48;;;;;;;10.68;3.80;;;18.00;72.10;;;;;;6213901;23;20325;-68
2021/05/11 12:15:20;;;;;;;7.00;3.30;;;17.90;72.40;;;;;;6213214;23;20004;-68
2021/05/11 12:18:14;;;;;;;7.53;3.15;;;17.90;73.60;;;;;;6213948;23;20024;-67
2021/05/11 12:20:41;;;;;;;9.35;4.00;;;17.80;75.00;;;;;;6213875;23;20080;-68
2021/05/11 12:23:15;;;;;;;8.43;3.58;;;17.70;76.40;;;;;;6213779;23;20008;-71
2021/05/11 12:25:53;;;;;;;7.65;4.30;;;17.70;78.80;;;;;;6214418;23;20528;-68
2021/05/11 12:28:33;;;;;;;11.07;4.70;;;17.60;81.80;;;;;;6214170;23;20032;-67
2021/05/11 12:30:59;;;;;;;9.70;5.00;;;17.50;81.10;;;;;;6212305;23;20008;-70
2021/05/11 12:33:38;;;;;;;8.40;5.60;;;17.40;84.00;;;;;;6212604;23;20001;-68
2021/05/11 12:36:16;;;;;;;9.88;5.88;;;17.30;86.10;;;;;;6211718;23;20015;-72
2021/05/11 12:38:41;;;;;;;9.20;6.13;;;17.30;87.80;;;;;;6213636;23;20098;-71
2021/05/11 12:41:14;;;;;;;10.57;6.90;;;17.20;88.50;;;;;;6211675;23;20000;-68
2021/05/11 12:43:49;;;;;;;10.57;6.93;;;17.20;89.60;;;;;;6212155;23;20011;-69
2021/05/11 12:46:21;;;;;;;11.20;7.60;;;17.20;90.20;;;;;;6213774;23;20426;-71
2021/05/11 12:48:50;;;;;;;;;;;17.20;90.40;;;;;;6214438;23;20083;-71
2021/05/11 12:51:25;;;;;;;6.97;4.75;;;17.20;90.40;;;;;;6212758;23;20321;-70
2021/05/11 12:53:51;;;;;;;12.63;7.10;;;17.10;88.40;;;;;;6212318;23;20004;-69
2021/05/11 12:56:50;;;;;;;9.68;7.25;;;17.00;89.50;;;;;;6212608;23;20026;-70
2021/05/11 13:09:24;;;;;;;9.95;6.85;;;16.90;90.20;;;;;;6212876;23;20023;-68
2021/05/11 13:22:24;;;;;;;9.10;6.85;;;16.80;91.20;;;;;;6213057;23;20063;-71
2021/05/11 13:35:34;;;;;;;9.65;6.80;;;17.00;90.90;;;;;;6214153;23;20044;-69
2021/05/11 13:38:00;;;;;;;9.85;6.70;;;17.00;91.30;;;;;;6207870;23;20012;-69
2021/05/11 13:40:25;;;;;;;10.88;7.43;;;17.10;92.00;;;;;;6213869;23;20015;-70
2021/05/11 13:42:51;;;;;;;7.65;5.93;;;17.10;92.20;;;;;;6211993;23;19996;-70
2021/05/11 13:45:17;;;;;;;9.13;6.80;;;17.20;91.60;;;;;;6212412;23;20012;-69
2021/05/11 13:47:55;;;;;;;8.73;6.20;;;17.10;91.60;;;;;;6213391;23;20410;-69
2021/05/11 13:50:22;;;;;;;10.20;5.85;;;17.20;92.00;;;;;;6213481;23;20008;-70
2021/05/11 13:52:48;;;;;;;11.48;5.93;;;17.20;92.00;;;;;;6212965;23;20035;-70
2021/05/11 13:55:21;;;;;;;14.20;6.13;;;17.10;91.40;;;;;;6213072;23;20000;-69
2021/05/11 14:03:15;;;;;;;9.07;5.93;;;16.90;90.60;;;;;;6212498;23;20015;-68
2021/05/11 14:05:41;;;;;;;9.95;5.82;;;16.70;90.20;;;;;;6212527;23;20005;-69
2021/05/11 14:08:06;;;;;;;12.00;7.38;;;16.70;90.30;;;;;;6211796;23;20001;-68
2021/05/11 14:10:32;;;;;;;10.52;7.03;;;16.60;90.70;;;;;;6211759;23;20000;-69
2021/05/11 14:12:57;;;;;;;11.52;6.50;;;16.50;91.00;;;;;;6210737;23;20031;-69
2021/05/11 14:15:23;;;;;;;13.50;6.78;;;16.50;91.10;;;;;;6211878;23;20022;-69
2021/05/11 14:17:49;;;;;;;13.63;6.55;;;16.40;91.20;;;;;;6212775;23;20001;-69
2021/05/11 14:20:15;;;;;;;12.35;6.78;;;16.40;91.50;;;;;;6212317;23;20005;-70
2021/05/11 14:22:40;;;;;;;12.43;6.57;;;16.40;91.80;;;;;;6213006;23;20488;-68
2021/05/11 14:25:06;;;;;;;11.27;6.78;;;16.40;92.00;;;;;;6211738;23;20015;-71
2021/05/11 14:27:32;;;;;;;11.65;7.22;;;16.40;92.20;;;;;;6209922;23;20008;-69
2021/05/11 14:29:57;;;;;;;13.15;7.55;;;16.40;92.20;;;;;;6213170;23;20001;-71
2021/05/11 14:32:23;;;;;;;9.63;7.13;;;16.40;92.20;;;;;;6213102;23;20005;-70
2021/05/11 14:34:48;;;;;;;10.38;7.93;;;16.40;92.30;;;;;;6212356;23;19996;-70
2021/05/11 14:37:14;;;;;;;14.05;8.30;;;16.40;92.50;;;;;;6211312;23;20508;-69
2021/05/11 14:39:40;;;;;;;11.30;7.80;;;16.40;92.50;;;;;;6212983;23;20012;-68
2021/05/11 14:42:06;;;;;;;12.02;8.57;;;16.50;92.70;;;;;;6212268;23;19993;-69
2021/05/11 14:44:31;;;;;;;9.15;7.18;;;16.50;92.70;;;;;;6213011;23;20005;-67
2021/05/11 14:46:57;;;;;;;12.32;7.38;;;16.50;92.70;;;;;;6213170;23;20001;-69
2021/05/11 14:49:23;;;;;;;13.57;8.70;;;16.50;92.60;;;;;;6210739;23;20334;-70
2021/05/11 14:51:49;;;;;;;11.07;7.60;;;16.60;92.70;;;;;;6211700;23;20413;-69
2021/05/11 14:54:14;;;;;;;9.38;8.00;;;16.60;93.00;;;;;;6213339;23;20015;-69
2021/05/11 14:56:40;;;;;;;14.43;11.02;;;16.60;93.10;;;;;;6208032;23;20004;-66
2021/05/11 14:59:10;;;;;;;90.88;68.03;;;16.60;93.10;;;;;;6208720;23;20020;-67
2021/05/11 15:01:36;;;;;;;68.25;50.70;;;16.70;93.10;;;;;;6208252;23;20461;-68
2021/05/11 15:04:02;;;;;;;36.45;28.98;;;16.70;93.10;;;;;;6208354;23;20008;-71
2021/05/11 15:06:28;;;;;;;27.58;24.63;;;16.70;93.20;;;;;;6209256;23;20027;-69
2021/05/11 15:08:54;;;;;;;19.20;17.30;;;16.70;93.30;;;;;;6208075;23;20595;-69
2021/05/11 15:11:20;;;;;;;22.38;18.65;;;16.70;93.30;;;;;;6209137;23;20011;-67
2021/05/11 15:13:47;;;;;;;32.42;25.20;;;16.70;93.10;;;;;;6206499;23;20017;-68
2021/05/11 15:16:20;;;;;;;26.27;22.17;;;16.70;92.90;;;;;;6208336;23;20675;-68
2021/05/11 15:18:46;;;;;;;39.33;27.92;;;16.70;92.80;;;;;;6207268;23;20036;-68
2021/05/11 15:21:12;;;;;;;64.50;41.83;;;16.70;93.00;;;;;;6209095;23;20437;-66
2021/05/11 15:23:38;;;;;;;69.90;48.38;;;16.70;92.90;;;;;;6208374;23;20000;-65
2021/05/11 15:26:03;;;;;;;41.60;29.90;;;16.70;93.00;;;;;;6208459;23;20001;-68
2021/05/11 15:28:29;;;;;;;37.50;28.83;;;16.70;93.10;;;;;;6207451;23;20499;-65
2021/05/11 15:30:55;;;;;;;43.53;36.03;;;16.70;93.00;;;;;;6207665;23;20434;-66
2021/05/11 15:33:21;;;;;;;47.60;40.70;;;16.60;92.80;;;;;;6209058;23;20105;-74
2021/05/11 15:35:47;;;;;;;37.83;33.15;;;16.70;92.80;;;;;;6206750;23;20789;-71
2021/05/11 15:38:13;;;;;;;46.05;40.17;;;16.70;92.70;;;;;;6207003;23;20009;-71
2021/05/11 15:40:44;;;;;;;41.78;37.15;;;16.60;92.80;;;;;;6208909;23;20005;-79
2021/05/11 15:43:11;;;;;;;40.20;36.15;;;16.60;92.80;;;;;;6209281;23;20388;-74
2021/05/11 15:45:37;;;;;;;20.15;18.25;;;16.70;92.70;;;;;;6209078;23;20015;-68
2021/05/11 15:48:06;;;;;;;15.20;13.80;;;16.70;92.60;;;;;;6209978;23;20043;-73
2021/05/11 15:50:34;;;;;;;15.48;14.07;;;16.60;92.40;;;;;;6210674;23;20001;-72
2021/05/11 15:53:03;;;;;;;16.20;14.50;;;16.60;92.50;;;;;;6183458;23;20019;-72
2021/05/11 15:55:33;;;;;;;16.05;14.43;;;16.60;92.70;;;;;;6210779;23;20453;-73
2021/05/11 15:58:00;;;;;;;15.15;13.07;;;16.60;92.60;;;;;;6209861;23;20028;-68
2021/05/11 16:00:26;;;;;;;14.73;13.38;;;16.70;92.80;;;;;;6208734;23;20034;-66
2021/05/11 16:02:52;;;;;;;17.77;15.93;;;16.80;93.00;;;;;;6210191;23;20058;-69
2021/05/11 16:05:19;;;;;;;21.23;18.85;;;16.70;93.10;;;;;;6208304;23;20040;-66
2021/05/11 16:07:45;;;;;;;19.73;17.67;;;16.70;92.90;;;;;;6210531;23;20032;-71
2021/05/11 16:10:11;;;;;;;16.13;14.48;;;16.70;93.00;;;;;;6211198;23;20353;-64
2021/05/11 16:12:37;;;;;;;13.45;12.15;;;16.70;93.00;;;;;;6209489;23;20005;-70
2021/05/11 16:15:08;;;;;;;12.32;11.23;;;16.70;92.80;;;;;;6211484;23;20015;-72
2021/05/11 16:17:35;;;;;;;13.48;11.43;;;16.60;92.90;;;;;;6209020;23;20003;-78
2021/05/11 16:20:00;;;;;;;12.50;11.20;;;16.50;92.80;;;;;;6209804;23;20704;-64
2021/05/11 16:22:26;;;;;;;13.63;11.10;;;16.50;92.60;;;;;;6211116;23;20012;-64
2021/05/11 16:24:52;;;;;;;12.98;11.73;;;16.50;92.70;;;;;;6209802;23;20405;-68
2021/05/11 16:27:18;;;;;;;12.50;11.30;;;16.40;92.90;;;;;;6209273;23;20000;-66
2021/05/11 16:29:44;;;;;;;13.45;12.10;;;16.40;92.80;;;;;;6208766;23;20027;-66
2021/05/11 16:32:12;;;;;;;14.02;11.35;;;16.40;93.00;;;;;;6210226;23;20004;-69
2021/05/11 16:34:38;;;;;;;13.02;11.82;;;16.30;93.20;;;;;;6207759;23;20060;-72
2021/05/11 16:37:06;;;;;;;13.40;12.10;;;16.30;93.20;;;;;;6209623;23;20036;-65
2021/05/11 16:39:31;;;;;;;12.63;11.48;;;16.40;93.30;;;;;;6207853;23;20025;-65
2021/05/11 16:41:57;;;;;;;12.57;11.27;;;16.40;93.40;;;;;;6209067;23;20080;-67
2021/05/11 16:44:23;;;;;;;11.48;10.38;;;16.50;93.30;;;;;;6210288;23;20361;-66
2021/05/11 16:46:49;;;;;;;13.10;11.80;;;16.40;93.10;;;;;;6208101;23;20005;-65
2021/05/11 16:49:15;;;;;;;12.40;11.20;;;16.30;93.20;;;;;;6206821;23;20167;-69
2021/05/11 16:51:40;;;;;;;14.65;10.93;;;16.30;93.20;;;;;;6209488;23;20016;-71
2021/05/11 16:54:06;;;;;;;12.48;11.18;;;16.30;93.40;;;;;;6207434;23;20433;-73
2021/05/11 16:56:32;;;;;;;12.45;11.20;;;16.30;93.50;;;;;;6207488;23;20008;-64
2021/05/11 16:58:58;;;;;;;11.95;10.82;;;16.20;93.50;;;;;;6209670;23;20036;-66